Terminal Aerodrome Forecast
Issued by NWS Sterling, VA

Home | Current Version | Previous Version | Text Only | Print | Product List | Glossary On
Versions: 1 2 3 4 5 6 7 8 9 10 11 12 13 14 15 16 17 18 19 20 21 22 23
000
FTUS41 KLWX 242300
TAFBWI
TAF
KBWI 242334Z 2500/2606 30006KT P6SM BKN200
     FM250700 00000KT P6SM FEW200
     FM251500 29006KT P6SM FEW250
     FM251900 27010KT P6SM FEW250
     FM260000 25006KT P6SM SCT050
     FM260100 25006KT P6SM SCT250=

USA.gov is the U.S. government's official web portal to all federal, state and local government web resources and services.